Filtrer par Nom Sexe Groupe d'age
3 Ballons Santini MedioFondo 2003
RG. DOS. TEMPS CAT RG. POINTS
1 2130 RICHARD DAMIEN 03:34:52:900 C 1 165.00 EPINAL, France
2 2155 VARE LIONEL 03:35:48:000 C 2 164.45 MONTIGNEZ, SUISSE
3 2388 CONVERSET SEBASTIEN 03:36:03:000 C 3 163.90 HERICOURT, FRANCE
4 2131 MACHADO CARLOS 03:36:35:000 D 1 165.00 BRUXELLES, BELGIQUE
5 2097 MOUGEL CHRISTIAN 03:36:37:000 D 2 164.45 VAGNEY, FRANCE
6 2118 BERRY FREDERIC 03:37:11:000 D 3 163.90 DIJON, FRANCE
7 2267 DIAZ STEVE 03:39:42:000 C 4 163.35 SCHWEIGHOUSE, FRANCE
8 2174 SIRON CEDRIC 03:40:42:000 C 5 162.80 DOUBS, FRANCE
9 2177 ECKERT GILLES 03:47:28:900 D 4 163.35 ST BARTHELEMY, FRANCE
10 2173 SAUGE J BERNARD 03:48:27:000 E 1 165.00 PONTARLIER, FRANCE
11 2255 BUCHWALDER DANIEL 03:50:01:000 E 2 164.45 BELFORT, FRANCE
12 2224 JACQUEMAIN PASCAL 03:50:29:000 E 3 163.90 PLANCHER BAS, FRANCE
13 2149 VANGAMPELAERE NICOLAS 03:51:35:000 C 6 162.25 CHAMPLON, BELGIQUE
14 2233 PICARD STEPHANE 03:52:02:000 C 7 161.70 GIRONCOURT, FRANCE
15 2381 RENAUD BERTRAND 03:52:17:000 C 8 161.15 ARINTHOD, FRANCE
16 2269 ENEE BRUNO 03:52:48:000 E 4 163.35 VETRIGNE, FRANCE
17 2176 SCHMID LILIAN 03:52:55:000 D 5 162.80 BESANCON, FRANCE
18 2142 HEINIS PATRICE 03:53:01:000 D 6 162.25 HIRSINGUE, FRANCE
19 2119 KRUST REGIS 03:53:16:000 C 9 160.60 NIFFER, FRANCE
20 602 VAN ASTEN KEES 03:53:34:000 D 7 161.70 ZEEWOLDE, Pays-Bas
21 2268 COLASANTI ROBERT 03:53:39:000 F 1 165.00 RUSSANGE, France
22 2152 KAELBEL ERIC 03:53:59:000 C 10 160.05 MUHLBACH, FRANCE
23 2156 KIEFFER ALEXANDRE 03:54:32:000 D 8 161.15 ANDLAU, FRANCE
24 2088 NOEL JEAN-CHARLES 03:54:38:000 D 9 160.60 ST NABORD FALLIERES, FRANCE
25 2058 JOURDAN ERIC 03:54:45:000 D 10 160.05 SPRIMONT, BELGIQUE
26 2296 ROTH FREDERIC 03:54:49:000 D 11 159.50 LEJUIX GY, FRANCE
27 2120 PIERREL REGIS 03:54:54:000 D 12 158.95 LA BRESSE, FRANCE
28 2082 RATTO JEAN-YVES 03:55:29:000 E 5 162.80 DOUBS, FRANCE
29 2313 LENTZ DENIS 03:56:50:000 D 13 158.40 DIEFFENBACH AU VAL, FRANCE
30 2104 BOISSON MARTIAL 03:58:47:000 D 14 157.85 Citers, France
31 2336 CONVERSET ALAIN 03:59:36:000 E 6 162.25 LUZE, FRANCE
32 2031 MERCEY PIERRE 04:00:14:000 E 7 161.70 AUBAINE, FRANCE
33 2307 REMUSON ALAIN 04:01:08:000 D 15 157.30 CRAVANCHE, FRANCE
34 2333 CUNEY YGOR 04:01:26:000 E 8 161.15 EVETTE SALBERT, FRANCE
35 2229 SCHENK BRAM 04:01:35:000 G 1 165.00 HAARLEM, Pays-Bas
36 2133 VOLTZ ROMUALD 04:01:39:000 C 11 159.50 KIRRWILLER, FRANCE
37 2241 DE POTTER LAURENT 04:01:52:000 C 12 158.95 FREJUS, FRANCE
38 2254 CALMELET GERARD 04:03:22:000 E 9 160.60 CRAVANCHE, FRANCE
39 2151 SINOT PATRICK 04:04:18:000 E 10 160.05 MARS LA TOUR, FRANCE
40 2051 LAIGNEAU THIERRY 04:04:47:000 D 16 156.75 DESANSANS, FRANCE
41 2384 KORVING WOUT 04:05:17:000 D 17 156.20 ZEIST, Pays-Bas
42 2281 REITSEMA EDUARD ALEXANDER 04:05:45:000 D 18 155.65 GOUDA, Pays-bas
43 2125 LITZLER LAURENT 04:06:44:000 D 19 155.10 MURBACH, FRANCE
44 2083 LAFEUILLE J.PAUL 04:06:57:000 F 2 164.45 ST QUENTIN, FRANCE
45 2089 GUTZWILLER JEAN JACQUES 04:06:59:300 E 11 159.50 ST AMARIN, FRANCE
46 2023 GAMMAITONI JEAN 04:07:41:000 E 12 158.95 AUDUN LE TICHE, FRANCE
47 2195 DEVIS ERIK 04:08:09:000 E 13 158.40 BOOM, BELGIQUE
48 2007 DEGOULANGE SEBASTIEN 04:08:24:000 C 13 158.40 ST GALMIER, FRANCE
49 2231 DURAND PHILIPPE 04:08:27:000 E 14 157.85 BELFORT, FRANCE
50 2078 DEWORME ALAIN 04:09:03:000 E 15 157.30 ARLON, BELGIQUE
51 2134 FRAGNIERE SYLVIE 04:09:08:000 A 1 165.00 HOUTAND, FRANCE
52 2012 BALANDREAUD YVES 04:09:12:000 D 20 154.55 TALENCIEUX, FRANCE
53 2157 ESCALIER YVES 04:09:25:000 E 16 156.75 Challes Les Eaux, France
54 2126 MARIATTE THIERRY 04:10:02:000 D 21 154.00 RICHWILLER, FRANCE
55 2221 NAVEAU CLAUDE 04:10:08:000 F 3 163.90 PLANCHER BAS, FRANCE
56 2110 MICHAUT SYLVAIN 04:10:25:000 D 22 153.45 FREJUS, FRANCE
57 2256 VERHEIJEN FRANK 04:10:48:000 C 14 157.85 MAASBERGEN, Pays-Bas
58 2016 STURM JACQUES 04:12:01:000 C 15 157.30 PARIS, FRANCE
60 2181 CANTENOT ANDRE 04:12:32:000 G 2 164.45 CROMARY, FRANCE
61 2112 VITREY JEAN 04:14:05:000 E 18 155.65 VILLIERS SUR SUIZE, FRANCE
62 2343 CHANTOME PASCAL 04:14:05:700 E 19 155.10 VELIZY, FRANCE
63 2032 LABIESSE RICHARD 04:14:22:000 F 4 163.35 VARANGEVILLE, FRANCE
64 351 SOTO RODRIGUEZ YERAY 04:16:26:000 C 16 156.75 LAS PALMAS, ESPAGNE
65 2123 DELAVALLE JEROME 04:16:43:000 C 17 156.20 RODEMACK, FRANCE
66 2004 FRANCK NICOLAS 04:17:00:000 D 23 152.90 ESNEUX, BELGIQUE
67 2171 PERRIN JEAN MARIE 04:17:43:000 F 5 162.80 ECHENOZ LA MELINE, FRANCE
68 2253 THOMAS CYRILLE 04:17:51:000 D 24 152.35 LUXEUIL LES BAINS, FRANCE
69 2025 DE ANGELI THIERRY 04:18:03:000 D 25 151.80 UNGERSHEIM, FRANCE
70 2351 RABBERS ERIK 04:18:30:000 D 26 151.25 ROTTERDAM, Pays-Bas
71 2024 HUGLIN MICHEL 04:19:02:000 E 20 154.55 BREITENBACH, FRANCE
72 2081 CAZENAVE LUDOVIC 04:19:34:000 D 27 150.70 DOLE, FRANCE
73 2366 ROBERTI JEAN-PIERRE 04:19:45:000 E 21 154.00 URCEREY, FRANCE
74 2309 MAURICE FRANCOIS 04:20:09:000 E 22 153.45 CORNIMONT, FRANCE
75 2305 FIERS PASCAL 04:20:10:000 D 28 150.15 VANDONCOURT, FRANCE
76 2014 CROUVEZIER CEDRIC 04:20:20:000 C 18 155.65 MONTBELIARD, FRANCE
77 2008 BOULBES PIERRE 04:20:33:000 D 29 149.60 ENSISHEIM, France
78 2258 VAN KLIET TONNY 04:20:40:000 D 30 149.05 ZEEWOLDE, Pays-Bas
79 2373 BESSARD CYRILLE 04:20:47:000 D 31 148.50 MAISOD, FRANCE
80 2100 APPELT REMI 04:20:56:000 C 19 155.10 LINEXERT, FRANCE
81 2090 DEMEUSY JACQUES 04:21:23:000 E 23 152.90 VILLERS LE SEC, FRANCE
82 2188 LALLOZ CHARLES 04:21:34:000 F 6 162.25 ROLLE, FRANCE
83 2312 CASTELLINO GILBERT 04:22:17:000 F 7 161.70 ECKBOLSHEIM, FRANCE
84 2277 GOUNANT JEAN PIERRE 04:22:56:000 F 8 161.15 VECOUX, FRANCE
85 2227 GALMICHE PATRICE 04:22:57:200 D 32 147.95 LURE, FRANCE
86 2317 LEMOSY CLAUDE 04:23:03:000 F 9 160.60 CHAGEY, FRANCE
87 2186 GENTILHOMME PATRICK 04:23:33:000 E 24 152.35 TREIX, FRANCE
88 2111 ALBRECHT CHRISTOPHE 04:24:53:000 E 25 151.80 SAINT LOUIS, FRANCE
89 2132 VALDENAIRE PASCAL 04:25:06:000 D 33 147.40 LA BRESSE, FRANCE
90 2015 NAUDENOT LAURENT 04:25:09:700 C 20 154.55 , FRANCE
91 2169 SAFFON PIERRE 04:25:27:000 E 26 151.25 LANGRES, FRANCE
92 2041 WILHEM MARC 04:25:46:000 D 34 146.85 COURGENAY, SUISSE
93 2160 MULLER PAUL 04:26:10:000 G 3 163.90 FELLERING, FRANCE
94 2342 DENIS RAPHAEL 04:26:11:700 D 35 146.30 DAMBENOIS, FRANCE
95 2242 BAJOU LAURENT 04:26:13:000 E 27 150.70 LURE, FRANCE
96 2320 ZIESER MARCO 04:26:26:000 E 28 150.15 BELVAUX, LUXEMBOURG
97 2359 BRASSEUR HENRIETTE 04:26:54:000 B 1 165.00 TRENAY, FRANCE
98 2250 BASTIEN LAURENT 04:27:29:000 D 36 145.75 EPINAL, FRANCE
99 2170 LUGAND PIERRE-OLIVIER 04:27:36:000 F 10 160.05 VESOUL, FRANCE
100 2073 PAIGNON JEAN LUC 04:27:39:400 E 29 149.60 ST GERMAIN EN LAYE, FRANCE
101 2042 GERARD WILLY 04:27:45:000 D 37 145.20 GERARDMER, FRANCE
102 2084 TRIPONNEZ JEAN-CLAUDE 04:27:50:000 F 11 159.50 VAIVRE ET MONTOILLE, FRANCE
103 2216 SCHERRER GILLES 04:27:59:000 E 30 149.05 RUPT SUR MOSELLE, FRANCE
104 2080 SAINT AYES BERNARD 04:28:03:000 F 12 158.95 XEUILLEY, FRANCE
105 2294 ROTH DANIEL 04:28:27:000 F 13 158.40 LEPUIX, FRANCE
106 2321 DEN BIEMAN FRANK 04:28:44:000 C 21 154.00 AMSTERDAM, Pays-Bas
107 2245 HANTZ JACQUES 04:28:57:000 E 31 148.50 SAINT- AMARIN, FRANCE
108 2288 PERSYN JAN MAARTEN 04:29:20:000 D 38 144.65 UTRECHT, Pays-Bas
109 2290 AUTHIER JACQUES 04:29:29:000 E 32 147.95 MOFFANS, FRANCE
110 2345 GERTHOFFER MICHEL 04:29:57:000 E 33 147.40 ROOSCH, FRANCE
111 2371 VALETTE LUDOVIC 04:30:09:000 D 39 144.10 REICHSTETT, FRANCE
112 2037 GOFFAUX VINCENT 04:30:30:000 D 40 143.55 BRUXELLES, BELGIQUE
113 2138 MENIGOZ DAVID 04:30:32:000 C 22 153.45 FOUGEROLLES, FRANCE
114 2295 TONELLI LAURENT 04:30:37:000 D 41 143.00 BELFORT, FRANCE
115 2136 MARGELIN JEAN PIERRE 04:30:53:000 D 42 142.45 VESOUL, FRANCE
116 2238 CHALEIL THIERRY 04:31:28:000 E 34 146.85 GIF SUR YVETTE, FRANCE
117 2316 BEL NOEL 04:31:46:000 F 14 157.85 LUZE, FRANCE
118 2127 LOUYOT SYLVAIN 04:32:11:000 C 23 152.90 SAINT CHERON, FRANCE
119 2246 GIRARDET ALAIN 04:32:19:000 E 35 146.30 VESOUL, FRANCE
120 2147 WOLFER LUC 04:32:25:000 C 24 152.35 Illzach, FRANCE
121 2337 MEYER ERIC 04:32:28:000 E 36 145.75 ARLON, BELGIQUE
122 2003 SPADI ALAIN 04:32:38:000 F 15 157.30 REDING, FRANCE
123 2163 SCHWALLER HUBERT 04:32:38:000 G 4 163.35 REDING, FRANCE
124 2172 FAUDOT MICHEL 04:33:26:000 G 5 162.80 BESANCON, FRANCE
125 2164 CUNCHON YVES 04:33:37:000 F 16 156.75 ROCHE LEZ BEAUPRE, FRANCE
126 2226 PY CLAUDE 04:33:53:000 E 37 145.20 CHAMPAGNEY, FRANCE
127 2183 CHEVALIER ERIC 04:34:11:000 E 38 144.65 PEIGNEY, FRANCE
128 2370 HERBEZ LUDOVIC 04:34:18:000 D 43 141.90 OBERHAUSBERGEN, FRANCE
129 2153 SANTALUCIA GILLES 04:34:35:000 E 39 144.10 BELFORT, FRANCE
130 2178 BOBILLIER STEPHANE 04:35:37:000 E 40 143.55 ROCLES LES BLAMONT, FRANCE
131 254 GORTER JORN 04:35:38:000 C 25 151.80 DRIEMOND, Pays-Bas
132 2022 HENRY GERARD 04:35:40:000 F 17 156.20 NANCY, FRANCE
133 2389 SANCHEZ JOHNY 04:35:43:000 D 44 141.35 GERARDMER, FRANCE
134 2059 BUSER PHILIPP 04:35:47:000 E 41 143.00 ARLESHEIM, SUISSE
135 2190 ENGELEN HERBERT 04:36:06:000 E 42 142.45 BUEHL, Allemagne
136 2362 SCHAFF PHILIPPE 04:36:37:000 E 43 141.90 GRAVELOTTE, FRANCE
137 2240 DACCORDI LUIGI 04:37:42:000 F 18 155.65 SAN MINIATO, ITALIE
138 2103 PERRIN FRANCOIS 04:38:00:000 E 44 141.35 LUXEUIL LES BAINS, FRANCE
139 2247 LE JANNOU OLIVIER 04:38:23:000 D 45 140.80 LUXEUIL, FRANCE
140 2230 CHOUFFOT SERGE 04:38:35:000 E 45 140.80 VETRIGNE, FRANCE
141 2311 BERNARD FRANCIS 04:38:38:000 E 46 140.25 PETITMAGNY, FRANCE
142 2298 BARLIER FRANCK 04:38:41:000 D 46 140.25 BELFORT, FRANCE
143 2276 SCHUBNEL JACQUES 04:38:51:000 G 6 162.25 CORNIMONT, FRANCE
144 2139 TISSERAND MICHEL 04:39:08:000 D 47 139.70 FOUGEROLLES, FRANCE
145 2086 HILAIRE PATRICE 04:39:47:000 D 48 139.15 RIGNY LA SALLE, FRANCE
146 2287 JUIF BENOIT 04:40:56:000 E 47 139.70 MONTESSAUX, FRANCE
147 2056 CALZETTA MAURICE 04:41:35:000 E 48 139.15 RUFFEY LES ECHIREY, FRANCE
148 2026 FERRI JEAN CLAUDE 04:41:35:300 F 19 155.10 AUXONNE, FRANCE
149 2002 BETHELL BRIAN 04:41:55:000 E 49 138.60 BINNINGEN, SUISSE
150 2252 THOMAS GASTON 04:42:03:000 F 20 154.55 AMBLANC ET VELLOT, FRANCE
151 2204 ROELS BRUNO 04:42:13:000 D 49 138.60 Tessenderlo, Belgique
152 2050 NIVET PIERRE 04:42:40:000 C 26 151.25 MORVILLARS, FRANCE
153 2304 MAISONNAVE REMY 04:43:17:000 D 50 138.05 BELFORT, FRANCE
154 2306 MARCOT HUGUES 04:43:27:000 C 27 150.70 DENNEY, FRANCE
155 2330 MAINEULT BRUNO 04:43:28:000 D 51 137.50 LAIRE, FRANCE
156 2266 VERN YVES 04:43:35:000 F 21 154.00 PESSAC, FRANCE
157 2349 KUIJPERS WOUTER 04:44:58:000 D 52 136.95 ROTTERDAM, Pays-Bas
158 2259 ANTOINE FABRICE 04:45:05:000 D 53 136.40 ERREVET, FRANCE
159 2020 CHEBOUD DANIEL 04:45:34:000 F 22 153.45 PFETTERHOUSE, FRANCE
160 2260 PASTANT GUILLAUME 04:45:37:000 D 54 135.85 ERREVET, FRANCE
161 2375 THEVENIN MAXIMILIEN 04:45:48:000 C 28 150.15 CEZIA, FRANCE
162 2010 CAMPEOTTO ERIC 04:46:02:000 E 50 138.05 CHATEAUROUX, FRANCE
163 2179 TIMMERMANS THOMAS 04:46:30:000 C 29 149.60 LA HULPE, BELGIQUE
164 2308 LUN PATRICK 04:46:52:000 D 55 135.30 THIL, FRANCE
165 2098 VAN DEN BERGH JOHAN 04:47:00:000 D 56 134.75 ZANDHOVEN, BELGIQUE
166 2380 MANS MICHAEL 04:47:16:000 C 30 149.05 BOOM, Pays-Bas
167 2146 NILLY RAYMOND 04:47:59:000 F 23 152.90 RANSPACH, FRANCE
168 2113 MEES KOEN 04:48:43:000 D 57 134.20 ANVERS, BELGIQUE
169 2236 PETERS JANS 04:49:08:000 F 24 152.35 KLAZIENAVEEN, Pays-Bas
170 2327 LEONARDY RALPH 04:49:26:000 D 58 133.65 HALLE, BELGIQUE
171 2378 DUPONT GUY 04:49:37:000 E 51 137.50 MONTBELIARD, FRANCE
172 2049 GRISO ANDRE 04:49:45:000 F 25 151.80 SAINT JULIEN, FRANCE
173 2324 MATHIEU ANDRE 04:50:00:000 G 7 161.70 SERMAMAGNY, FRANCE
174 2243 BOUCHER PHILIPPE 04:50:11:000 E 52 136.95 MAGNY VERNOIS, FRANCE
175 2374 ECARNOT ERIC 04:50:14:000 D 59 133.10 MAISOD, FRANCE
176 2106 DILASSER OLIVIER 04:50:31:000 D 60 132.55 LOCMARIA PLOUZANE, FRANCE
177 2228 VAN WIJK PETER 04:50:40:000 F 26 151.25 LEIDSCHENDAM, Pays-Bas
178 2289 FOUCAUD FABRICE 04:52:22:000 D 61 132.00 LUXEUIL LES BAINS, FRANCE
179 2214 VERDOODT LUC 04:52:50:000 D 62 131.45 WILLEBROEK, BELGIQUE
180 2220 BENOOT ROGER 04:53:05:000 G 8 161.15 DE PINTE, BELGIQUE
181 2326 SCHOEPP LAURENT 04:53:10:000 D 63 130.90 HOEILAART, BELGIQUE
182 2387 BRON JEAN PAUL 04:53:41:000 D 64 130.35 CUSSEY SUR L OGNON, FRANCE
183 265 VERSTEEG TOM 04:53:43:000 D 65 129.80 SOEST, Pays-Bas
184 2332 COLLIN JEAN ROBERT 04:54:32:000 E 53 136.40 MONTENOIS, FRANCE
185 2297 FREYBURGER MARTINE 04:54:35:000 A 2 164.45 ROUGEMONT LE CHATEAU, FRANCE
186 2107 PERREZ SEBASTIEN 04:54:42:000 C 31 148.50 BELFORT, France
187 2379 BARACCHINI ENNIO 04:55:38:000 E 54 135.85 HABSHEIM, FRANCE
188 477 MULDERS BART 04:55:51:000 F 27 150.70 BEUGEN, Pays-Bas
189 2101 VAN DAELE GERT 04:55:52:000 D 66 129.25 AARTSELAAR, BELGIQUE
190 2161 TIARRI J.PIERRE 04:56:07:000 E 55 135.30 MULHOUSE, FRANCE
191 2135 MAILLOT CHRISTOPHE 04:56:20:000 D 67 128.70 ALTKIRCH, FRANCE
192 2225 PAOLI JEAN 04:56:52:000 F 28 150.15 CHAMPAGNEY, FRANCE
193 2358 BENEDIK JEAN-PHILIPPE 04:57:46:000 C 32 147.95 SIERCK LES BAINS, France
194 2141 QUENOT JOEL 04:57:53:000 F 29 149.60 MONTUREUX LES BAULAY, FRANCE
195 2182 JECKER NICOLAS 04:58:30:000 C 33 147.40 ESSLINGEN, ALLEMAGNE
196 2021 MORTEN HANSEN 04:59:22:000 D 68 128.15 FRANKFURT, ALLEMAGNE
197 2035 RUEFF PAUL 04:59:25:500 F 30 149.05 SELONCOURT, FRANCE
198 379 MULDERS GERARD 05:00:32:000 E 56 134.75 GROESBEEK, Pays-Bas
199 240 JANISSEN MARK 05:02:41:000 D 69 127.60 NEER, Pays-Bas
200 763 PALINGS JAN 05:02:51:000 E 57 134.20 ROOSENDAAL, Pays-Bas
201 563 DUPONT MONIKA 05:03:04:000 B 2 164.45 RIXHEIM, FRANCE
202 2129 COME JEAN-PAUL 05:03:55:000 F 31 148.50 FRANCALMONT, FRANCE
203 2286 LOCH HERVE 05:04:02:000 D 70 127.05 CHAGEY, FRANCE
204 2329 PERREZ BERNARD 05:04:05:000 F 32 147.95 ROUGEGOUTTE, FRANCE
205 2207 OP DE BEECK FREDDY 05:04:08:000 F 33 147.40 KAPELLE/BOS, BELGIQUE
206 2154 BIR JEAN LUC 05:04:49:000 D 71 126.50 VIEUX FERRETTE, FRANCE
207 579 CANU CYRIL 05:05:27:000 D 72 125.95 TOULON, FRANCE
208 2385 REINGPACH PHILIPPE 05:05:28:000 E 58 133.65 ILLFURTH, FRANCE
209 2219 COMEYNE ERIK 05:05:40:000 G 9 160.60 MERELBEKE, BELGIQUE
210 2372 VEILLE FRANCK 05:06:08:000 D 73 125.40 NANTUA, FRANCE
211 2199 MOUGEL JEAN 05:06:53:000 F 34 146.85 ESSERT, FRANCE
212 2043 GERARDIN GILLES 05:06:57:000 D 74 124.85 HERRLISHEIM, FRANCE
213 2184 DARIN BENOIT 05:07:55:000 E 59 133.10 BESANCON, FRANCE
214 2283 LEHMANN ALAIN 05:08:30:000 E 60 132.55 GIROMAGNY, FRANCE
215 2264 VUILLEMIN PASCAL 05:09:26:000 E 61 132.00 CHAMPAGNEY, FRANCE
216 2301 BOURTHAUD GABRIEL 05:09:32:000 G 10 160.05 FROIDECONCHE, FRANCE
217 2338 DARCONSO GIOVANNI 05:09:35:000 E 62 131.45 JUPRELLE, BELGIQUE
218 2185 POYOT CHRISTIAN 05:09:37:000 F 35 146.30 ST MARTIN SUR LE PRE, FRANCE
219 2331 GEORGES GERARD 05:09:50:000 G 11 159.50 ROYE, FRANCE
220 2285 JACQUAMOND ALLAN 05:10:16:000 D 75 124.30 FOUGEROLLES, FRANCE
221 2194 PELTIER PIERRE 05:11:38:000 C 34 146.85 PLAPPEVILLE, FRANCE
222 2353 WITTINK AGNES JANINE 05:11:40:000 A 3 163.90 DELT, Pays-Bas
223 2282 MARION CHRISTIAN 05:11:42:000 F 36 145.75 ST ETIENNE LES REMIREMONT, FRANCE
224 2166 IMARD EDDY 05:12:09:000 D 76 123.75 GEMEAUX, FRANCE
225 2108 TORFS KURT 05:12:23:000 C 35 146.30 PUURS, BELGIQUE
226 36 BRIQUET ALBERT 05:12:26:000 G 12 158.95 CATUS, FRANCE
227 2348 GENEMAUX PATRICE 05:12:55:000 E 63 130.90 BELFORT, FRANCE
228 2386 RICHE EMMANUEL 05:13:26:000 C 36 145.75 JONCHEREY, FRANCE
229 2318 BOULESTEIX OLIVIER 05:13:31:000 D 77 123.20 BAIE-MAHAULT, FRANCE
230 2121 BEHRA COLETTE 05:15:04:000 B 3 163.90 FELLERING, FRANCE
231 2122 BEHRA XAVIER 05:15:05:700 E 64 130.35 FELLERING, FRANCE
232 2234 BOUDEVIN MAURICE 05:16:22:000 G 13 158.40 PLANCHER BAS, FRANCE
233 2102 FLEURENT MICHEL 05:17:14:000 E 65 129.80 XIROCOURT, FRANCE
234 2211 SELLESLAGH GUNTER 05:17:50:000 E 66 129.25 GRIMBERGEN, BELGIQUE
235 2383 VERCAMMEN STIJN 05:17:53:000 C 37 145.20 DUFFEL, BELGIQUE
236 2033 DERRO JEAN MARIE 05:18:11:000 F 37 145.20 ST GEORGES DE LUZENCON, FRANCE
237 2145 SIERA RON 05:18:12:000 E 67 128.70 VOURSCHOTEN, Pays-Bas
238 2274 FREY PATRICK 05:18:22:000 F 38 144.65 HARDRICOURT, FRANCE
239 2352 POST VAN DER MOLEN DANIELLE 05:18:41:000 A 4 163.35 ROTTERDAM, Pays-Bas
240 2187 KOLLY DENIS 05:18:51:000 E 68 128.15 PRESENTEVILLERS, FRANCE
241 2137 GOSSET PAUL 05:18:57:000 F 39 144.10 LACHAPELLE AUX POTS, FRANCE
242 2303 CONTEJEAN DAVID 05:20:07:000 D 78 122.65 LURE, FRANCE
243 2001 BENNARDO VINCENZO 05:20:26:000 E 69 127.60 SERAING BONCELLES, BELGIQUE
244 687 SCHOOFS GUIDO 05:20:30:000 E 70 127.05 ALKEN, BELGIQUE
245 2066 ROLO ANTONIO 05:20:56:000 F 40 143.55 LE PECQ, FRANCE
246 2000 LEONARD ALAIN 05:21:35:000 E 71 126.50 BONCELLES, BELGIQUE
247 2034 FILLOUX DANIEL 05:21:49:000 E 72 125.95 DIJON, FRANCE
248 2299 HERARD MICHEL 05:22:04:000 F 41 143.00 HERICOURT, FRANCE
249 2357 WANSART JEAN FRANCOIS 05:22:09:000 D 79 122.10 ANSEREMME, BELGIQUE
250 2087 JACQUE MICHAEL 05:22:15:000 C 38 144.65 BUFFIGNECOURT, FRANCE
251 2314 TORLET CORINNE 05:22:18:000 A 5 162.80 DIEFFENBACH AU VAL, FRANCE
252 2339 LARDAU ALAIN 05:22:38:000 E 73 125.40 BONCELLES, BELGIQUE
253 2237 PHEULPIN JEAN CLAUDE 05:22:46:000 F 42 142.45 LURE, FRANCE
254 2235 LAMOTTE MICHEL 05:22:53:000 F 43 141.90 GLISY, FRANCE
255 2159 DUNAND JOEL 05:23:22:000 F 44 141.35 CHATELLON LE DUC, FRANCE
256 2202 WINWOOD CRAIG 05:23:35:000 D 80 121.55 ASCHAFFENBUG, ALLEMAGNE
257 2165 BRAUN ARMIN 05:24:48:000 F 45 140.80 BAIERSBRONN, ALLEMAGNE
258 2069 LEMEE BRUNO 05:25:18:000 E 74 124.85 BOUGIVAL, FRANCE
259 2189 BRISEBARRE JEAN-CLAUDE 05:26:10:000 F 46 140.25 CHAUMONT, FRANCE
261 2280 MARION CHRISTOPHE 05:26:22:000 D 81 121.00 ST SAUVEUR, FRANCE
263 2279 BEURET EMMANUEL 05:27:15:000 C 39 144.10 HERINCOURT, FRANCE
264 2239 SANTERMANS JOS 05:27:50:000 E 75 124.30 HASSELT, BELGIQUE
265 2322 LHEUREUX JEAN 05:28:29:000 E 76 123.75 BELFORT, FRANCE
266 444 RIEGEL SEBASTIAN 05:28:38:000 D 82 120.45 DREIEICH, ALLEMAGNE
267 2278 BEURET JEAN MICHEL 05:29:17:000 E 77 123.20 TAILLECOURT, FRANCE
268 520 VAN DER HEYDEN RICHARD 05:29:50:000 D 83 119.90 ASTEN, Pays-Bas
269 2323 DUVERNOIS ALAIN 05:30:51:000 F 48 139.15 MEROUX, FRANCE
270 2140 MATHIEU SEBASTIEN 05:32:04:000 C 40 143.55 AUDUN LE ROMAN, FRANCE
271 2018 GROSHAENY MARCEL 05:33:29:000 E 78 122.65 BLODELSHEIR, FRANCE
272 2052 BOURDON BERNARD 05:34:34:000 F 49 138.60 MONTMACQ, FRANCE
273 2053 BOURDON GUILLAUME 05:34:35:100 C 41 143.00 SAINT R‚MY LES CHEVREUSE, FRANCE
274 2273 CLAVIER JULIE 05:35:16:000 A 6 162.25 VERNEUIL SUR SEINE, FRANCE
275 2275 BESNARD PATRICK 05:35:17:800 E 79 122.10 TRIEL SUR SEINE, FRANCE
276 2077 LEROUX DIDIER 05:35:18:100 E 80 121.55 FERRETTE, FRANCE
277 2208 MUYLDERMANS BENNY 05:36:03:000 E 81 121.00 KAPELLE, BELGIQUE
278 2075 BRAUD JEAN FRANCOIS 05:37:35:000 E 82 120.45 PARIS, FRANCE
279 2193 ARNOULD GILLES 05:38:41:000 E 83 119.90 QUINGEY, FRANCE
280 2038 JAVEL PIERRE EMMANUEL 05:39:01:000 D 84 119.35 PALISE, FRANCE
281 2068 THIBAULT SERGE 05:39:38:000 D 85 118.80 MARLY LE ROI, FRANCE
282 2203 COLETTE WALTER 05:41:15:000 E 84 119.35 HUMBEEK, BELGIQUE
283 2162 COLARD MADELEINE 05:41:19:000 A 7 161.70 LEVIER, FRANCE
284 280 PECORELLI GIUSEPPE 05:41:20:000 E 85 118.80 NOISSEVILLE, FRANCE
285 2196 ROUFFAER RENS 05:42:35:000 C 42 142.45 GRIMBERGEN, BELGIQUE
286 2099 BULTICK JAN 05:43:16:000 D 86 118.25 LINT, BELGIQUE
287 2044 MASSET MARTINE 05:44:02:000 B 5 162.80 FERE CHAMPENOISE, FRANCE
288 2036 LACREUSE CHRISTIAN 05:44:18:000 E 86 118.25 FELDKIRCH, FRANCE
289 2271 BISAZZA JEAN 05:44:38:000 E 87 117.70 LES MUREAUX, FRANCE
290 2200 HUGON PASCAL 05:45:28:000 D 87 117.70 CHAMPAGNEY, FRANCE
291 2217 ARCATI ANTOINE 05:48:43:000 G 14 157.85 VARESE, BELGIQUE
292 53 VILLE BART 05:49:18:000 D 88 117.15 TERNAT, Belgique
293 2124 DELAVALLE FRANCK 05:50:00:000 D 89 116.60 MULHOUSE, FRANCE
294 2356 PASTWA MICHEL 05:50:38:000 E 88 117.15 GRAND CHARMONT, FRANCE
295 2218 DEVOOGHT HUBERT 05:51:03:000 F 50 138.05 SINAAI WAAS, BELGIQUE
296 2143 HOFFS PIM 05:51:38:000 D 90 116.05 OOST ZAAN, Pays-Bas
297 2096 LUCAS YANNICK 05:51:54:000 E 89 116.60 DOLE, FRANCE
298 2354 MIGNOT GERARD 05:52:05:000 F 51 137.50 ST LOUP/SEMOUSE, FRANCE
299 2346 PERROT FREDERIC 05:52:20:000 D 91 115.50 LUZE, FRANCE
300 2128 OURION FRANCK 05:52:43:000 D 92 114.95 ARCHES, FRANCE
301 2011 CHARLOT LAURENT 05:53:20:000 E 90 116.05 CHAMPILLON, FRANCE
302 2265 DESPINOY FRANCIS 05:53:31:000 F 52 136.95 ESWARS, FRANCE
303 2355 AFONSO JANUARIO 05:56:06:000 D 93 114.40 CORBENAY, FRANCE
305 2325 GSTALDER ROBERT 05:58:15:000 F 53 136.40 RIMBACH LE HAUT, FRANCE
306 257 PROVOST MARCIA 05:58:22:000 A 8 161.15 TERNAT, Belgique
307 2347 FRANCOIS PASCAL 05:59:36:000 D 94 113.85 BELFORT, FRANCE
308 2390 DE WAELE TOM 06:00:56:000 C 43 141.90 OOSTKAMP, BELGIQUE
309 2006 HALLEUX PHILIPPE 06:02:34:000 E 91 115.50 NANDRIN, BELGIQUE
310 2300 BRAUD JACQUES 06:03:05:000 G 15 157.30 LURE, FRANCE
311 2040 FORBES ALISTAIR 06:03:07:000 F 54 135.85 OFFENBECH, ALLEMAGNE
312 2209 MUSET DANIEL 06:04:59:000 E 92 114.95 RIXENSART, BELGIQUE
313 2272 DELAUNAY CLAUDE 06:06:17:000 E 93 114.40 LES MUREAUX, FRANCE
314 2270 CLAVIER ANDRE 06:06:18:100 E 94 113.85 VERNOUILLET, FRANCE
316 2315 LENOIR DOMINIQUE 06:10:29:000 E 95 113.30 CHAMPILLON, FRANCE
317 790 CORNU ALAIN 06:10:38:000 F 55 135.30 ST LOUP S/ SEMOUSE, FRANCE
318 2005 RANSON ISABELLE 06:11:40:000 A 9 160.60 ST CYR L ECOLE, FRANCE
319 2148 ROCHETEAU ANDRE 06:12:51:000 E 96 112.75 BAUME LES DAMES, FRANCE
320 565 GEROME FRANCK 06:13:01:000 D 95 113.30 BRIE COMTE ROBERT, FRANCE
321 2215 GUILLAUD PATRICK 06:14:36:000 E 97 112.20 EPINAL, FRANCE
322 2070 CHARTON DANIEL 06:14:41:000 F 56 134.75 MARLY LE ROI, FRANCE
323 2341 WANLIN RENE 06:15:13:000 G 16 156.75 LIEGE, BELGIQUE
324 2249 SLUIJTER ROBERT 06:18:55:000 D 96 112.75 HAARLEM, Pays-Bas
325 2168 PASTWA GEORGES 06:21:09:000 E 98 111.65 BELFORT, FRANCE
326 2302 CLAUDEL RENE 06:22:10:000 F 57 134.20 RONCHAMP, FRANCE
327 2248 SLUIJTER REMMERT 06:22:54:000 D 97 112.20 CJ HAARLEM, Pays-Bas
328 2232 GALLAIRE ANDRE 06:24:29:000 F 58 133.65 AILLVILLERS ER LYAUMONT, FRANCE
329 695 VAN RHIJN MARK 06:24:57:000 D 98 111.65 LEIDEN, Pays-Bas
330 2251 LEENDERS KAREL 06:27:28:000 F 59 133.10 SITTARD, Pays-Bas
331 2064 LAFONT OLIVIER 06:29:15:000 C 44 141.35 PLAISIR, FRANCE
332 480 DE VRIES DIRK 06:30:17:000 E 99 111.10 HARDEGARIJP, Pays-bas
333 795 KOMIJN REMKO 06:37:27:000 D 99 111.10 DEN HAAG, Pays-Bas
334 2017 CHOCHOY FRANCELINE 06:38:38:000 B 6 162.25 BRUNOY, FRANCE
335 2244 PELLEGRINI CHANTAL 06:46:32:000 B 100 110.55 NAVENNES, FRANCE
336 719 BORSJE MARTIN 06:47:11:000 E 101 110.00 GELEEN, Pays-Bas
337 2197 OLBRECHTS KLAAS 06:48:37:000 C 45 140.80 GRIMBERGEN, BELGIQUE
338 2310 TIMMERMANS VIKTOR 06:48:41:000 C 46 140.25 UTRECHT, Pays-Bas
339 2039 KORTBEEK LIESBETH 06:49:13:000 B 7 161.70 ANLEZY, FRANCE
340 2206 VAN HUMMELEN WILLY 06:49:22:000 G 17 156.20 HUMBEEK GRIMBERGEN, BELGIQUE
341 2210 MISEUR MICHAEL 06:51:02:000 D 100 110.55 TERVUREN, BELGIQUE
342 268 Jurgen Verstuyft 06:58:48:000 D 101 110.00 Erpe-mere, BELGIQUE
343 2293 SCHILLER CLAUDE 07:06:36:000 G 18 155.65 ORCHIES, FRANCE
344 2376 VAN MEEL ROB 07:07:39:000 E 102 109.45 DONGEN, FRANCE
345 2072 NICAISE BASTIEN 07:09:36:000 C 47 139.70 LE PECQ, FRANCE
346 2192 TER HEEGE JAN 07:09:53:700 D 102 109.45 BOCHUM, ALLEMAGNE
347 2364 FABING FRANCIS 07:09:59:000 E 103 108.90 LANTEFONTAINE, FRANCE
348 2391 TORTIL GILBERT 07:11:14:000 E 104 108.35 AUPS, FRANCE
349 2201 DOUCET CLAUDE 07:14:45:000 G 19 155.10 MASSY, FRANCE
350 2263 WAGNER CLAUDE 07:25:43:000 E 105 107.80 ECHTERNACH, 23
351 2262 BUITENHUIS ARNOLD 07:29:30:000 E 106 107.25 APELDOORN, Pays-Bas
352 705 KOEHLER ROSEMARIE 07:30:56:000 B 8 161.15 WOLFEGG, ALLEMAGNE
353 2261 DAM HANS 07:33:49:000 F 60 132.55 APELDOOM, Pays-Bas
354 2367 SUIJS ERIC 08:01:16:000 D 103 108.90 RUSMALEN, Pays-Bas
355 2369 VERHEIJEN FRED 08:10:11:000 D 104 108.35 OSS, Pays-Bas
356 2198 GRUFFAT ELODIE 08:30:55:000 A 10 160.05 PLASNE, FRANCE
357 2167 HELL PHILIPPE 08:41:20:000 D 105 107.80 HUESPACH LE HAUT, FRANCE
358 2365 PEDRINA JEAN PIERRE 08:59:03:000 F 61 132.00 CHATEAUVILAIN, FRANCE

La Bourgogne Cyclo

Après une saison 2020 très particulière et face à cette pandémie qui s'étire en longueur, nous avons dû nous adapter.

Ainsi, c'est avec beaucoup de regrets que nous vous annonçons que La Bourgogne Cyclo ne sera pas organisée en 2021.

Nous travaillons afin que vous puissiez relever le défi de manière alternative.

Nous vous tiendrons informés.
TOP